Time;durP1;ratioP1;P1;durP2;ratioP2;P2;SDS_P1;SDS_P2;PMS_P1;PMS_P2;Temp;Humidity;BMP_temperature;BMP_pressure;BME280_temperature;BME280_humidity;BME280_pressure;Samples;Min_cycle;Max_cycle;Signal;HPM_P1;HPM_P2
2022/03/05 00:01:30;;;;;;;1.50;1.40;;;;;;;;;;4941993;29;20481;-75
2022/03/05 00:03:58;;;;;;;6.00;1.17;;;2.20;1.00;;;;;;4942856;29;20539;-75
2022/03/05 00:06:27;;;;;;;0.50;0.10;;;2.20;1.00;;;;;;4921653;29;20528;-74
2022/03/05 00:08:55;;;;;;;0.50;0.20;;;2.10;1.00;;;;;;4920381;29;20441;-76
2022/03/05 00:11:23;;;;;;;0.60;0.30;;;2.20;1.00;;;;;;4919044;29;20475;-75
2022/03/05 00:13:51;;;;;;;0.50;0.10;;;2.10;1.00;;;;;;4918757;29;20972;-75
2022/03/05 00:16:19;;;;;;;0.50;0.10;;;2.10;1.00;;;;;;4923357;29;20452;-75
2022/03/05 00:18:47;;;;;;;2.70;0.80;;;2.10;1.00;;;;;;4914797;29;20546;-75
2022/03/05 00:21:15;;;;;;;0.50;0.10;;;2.10;1.00;;;;;;4932643;29;20499;-75
2022/03/05 00:23:44;;;;;;;0.70;0.60;;;2.10;1.00;;;;;;4939241;29;20452;-75
2022/03/05 00:26:13;;;;;;;0.97;0.93;;;2.10;1.00;;;;;;4940215;29;20458;-74
2022/03/05 00:28:40;;;;;;;0.83;0.83;;;2.00;1.00;;;;;;4940383;29;20465;-75
2022/03/05 00:31:08;;;;;;;3.00;2.80;;;2.10;1.00;;;;;;4939752;29;20479;-75
2022/03/05 00:33:36;;;;;;;0.50;0.20;;;2.00;1.00;;;;;;4940355;29;20568;-75
2022/03/05 00:36:05;;;;;;;1.90;1.50;;;2.00;1.00;;;;;;4939803;29;20474;-75
2022/03/05 00:38:33;;;;;;;5.30;4.90;;;2.00;1.00;;;;;;4938013;29;20450;-75
2022/03/05 00:41:02;;;;;;;4.67;4.37;;;2.00;1.00;;;;;;4937335;29;20475;-74
2022/03/05 00:43:30;;;;;;;0.87;0.87;;;1.90;1.00;;;;;;4937731;29;20448;-76
2022/03/05 00:45:58;;;;;;;0.50;0.10;;;1.80;1.00;;;;;;4938597;29;20448;-74
2022/03/05 00:48:26;;;;;;;1.73;0.60;;;1.80;1.00;;;;;;4938300;29;20464;-75
2022/03/05 00:50:54;;;;;;;0.60;0.47;;;1.80;1.00;;;;;;4936956;29;20801;-75
2022/03/05 00:53:21;;;;;;;1.60;1.50;;;1.70;1.00;;;;;;4937038;29;20480;-75
2022/03/05 00:55:49;;;;;;;2.73;2.53;;;1.70;1.00;;;;;;4940347;29;20443;-74
2022/03/05 00:58:18;;;;;;;0.60;0.50;;;1.70;1.00;;;;;;4941191;29;20453;-75
2022/03/05 01:00:47;;;;;;;4.50;0.70;;;1.70;1.00;;;;;;4938566;29;20951;-75
2022/03/05 01:03:15;;;;;;;1.70;1.60;;;1.70;1.00;;;;;;4938031;29;20497;-74
2022/03/05 01:05:43;;;;;;;0.53;0.10;;;1.70;1.00;;;;;;4937873;29;20447;-75
2022/03/05 01:08:12;;;;;;;0.60;0.10;;;1.70;1.00;;;;;;4937649;29;20436;-75
2022/03/05 01:10:39;;;;;;;0.50;0.30;;;1.70;1.00;;;;;;4931056;29;20459;-74
2022/03/05 01:13:07;;;;;;;0.60;0.10;;;1.70;1.00;;;;;;4915376;29;20493;-75
2022/03/05 01:15:37;;;;;;;1.50;1.40;;;1.70;1.00;;;;;;4934732;29;20476;-75
2022/03/05 01:18:05;;;;;;;0.60;0.50;;;1.70;1.00;;;;;;4937664;29;20527;-74
2022/03/05 01:20:33;;;;;;;0.50;0.10;;;1.70;1.00;;;;;;4920521;29;20454;-75
2022/03/05 01:23:01;;;;;;;0.50;0.10;;;1.70;1.00;;;;;;4919265;29;20454;-75
2022/03/05 01:25:29;;;;;;;2.73;2.00;;;1.70;1.00;;;;;;4918429;29;20513;-75
2022/03/05 01:27:56;;;;;;;0.50;0.10;;;1.70;1.00;;;;;;4917016;29;20461;-74
2022/03/05 01:30:24;;;;;;;0.60;0.53;;;1.70;1.00;;;;;;4919639;29;20475;-75
2022/03/05 01:32:53;;;;;;;0.50;0.10;;;1.60;1.00;;;;;;4935797;29;20483;-75
2022/03/05 01:35:22;;;;;;;0.50;0.10;;;1.70;1.00;;;;;;4937192;29;20449;-75
2022/03/05 01:37:50;;;;;;;0.50;0.10;;;1.60;1.00;;;;;;4936699;29;20452;-74
2022/03/05 01:40:18;;;;;;;0.50;0.10;;;1.60;1.00;;;;;;4938481;29;20448;-74
2022/03/05 01:42:46;;;;;;;0.50;0.10;;;1.60;1.00;;;;;;4939241;29;20468;-75
2022/03/05 01:45:14;;;;;;;1.33;1.17;;;1.70;1.00;;;;;;4938916;29;20444;-74
2022/03/05 01:47:42;;;;;;;0.50;0.10;;;1.60;1.00;;;;;;4940042;29;20457;-75
2022/03/05 01:50:11;;;;;;;0.50;0.20;;;1.60;1.00;;;;;;4938812;29;20534;-75
2022/03/05 01:52:39;;;;;;;0.77;0.67;;;1.60;1.00;;;;;;4937293;29;21007;-74
2022/03/05 01:55:08;;;;;;;0.60;0.40;;;1.60;1.00;;;;;;4937223;29;20483;-75
2022/03/05 01:57:36;;;;;;;0.50;0.20;;;1.50;1.00;;;;;;4936630;29;20460;-75
2022/03/05 02:00:04;;;;;;;2.33;1.40;;;1.50;1.00;;;;;;4937355;29;20444;-74
2022/03/05 02:02:32;;;;;;;3.47;2.60;;;1.40;1.00;;;;;;4937257;29;20472;-74
2022/03/05 02:05:00;;;;;;;4.40;2.83;;;1.40;1.00;;;;;;4937273;29;21022;-75
2022/03/05 02:07:29;;;;;;;1.37;0.87;;;1.30;1.00;;;;;;4937452;29;20448;-75
2022/03/05 02:09:57;;;;;;;1.53;1.43;;;1.30;1.00;;;;;;4936245;29;20444;-75
2022/03/05 02:12:29;;;;;;;0.50;0.10;;;1.40;1.00;;;;;;4936313;29;20476;-75
2022/03/05 02:14:58;;;;;;;1.30;1.20;;;1.40;1.00;;;;;;4940041;29;20467;-74
2022/03/05 02:17:27;;;;;;;0.50;0.10;;;1.40;1.00;;;;;;4938784;29;20456;-74
2022/03/05 02:19:55;;;;;;;0.50;0.10;;;1.40;1.00;;;;;;4922150;29;20472;-75
2022/03/05 02:22:25;;;;;;;2.30;2.20;;;1.40;1.00;;;;;;4923681;29;20499;-75
2022/03/05 02:24:55;;;;;;;4.13;2.83;;;1.40;1.00;;;;;;4935513;29;20452;-75
2022/03/05 02:27:25;;;;;;;6.37;3.07;;;1.40;1.00;;;;;;4936863;29;20464;-76
2022/03/05 02:29:55;;;;;;;0.50;0.10;;;1.40;1.00;;;;;;4936420;29;20448;-79
2022/03/05 02:32:24;;;;;;;18.23;1.70;;;1.30;1.00;;;;;;4938507;29;20468;-74
2022/03/05 02:34:52;;;;;;;0.50;0.20;;;1.30;1.00;;;;;;4940455;29;20515;-74
2022/03/05 02:37:20;;;;;;;0.50;0.10;;;1.30;1.00;;;;;;4942321;29;20467;-74
2022/03/05 02:39:49;;;;;;;1.43;1.33;;;1.20;1.00;;;;;;4939249;29;20494;-75
2022/03/05 02:42:17;;;;;;;0.73;0.40;;;1.20;1.00;;;;;;4935972;29;20470;-75
2022/03/05 02:44:46;;;;;;;0.50;0.10;;;1.20;1.00;;;;;;4935830;29;20488;-74
2022/03/05 02:47:15;;;;;;;0.83;0.83;;;1.20;1.00;;;;;;4936921;29;20448;-75
2022/03/05 02:49:42;;;;;;;0.57;0.40;;;1.20;1.00;;;;;;4942129;29;20539;-76
2022/03/05 02:52:10;;;;;;;0.60;0.50;;;1.20;1.00;;;;;;4942145;29;20535;-73
2022/03/05 02:54:38;;;;;;;0.53;0.27;;;0.50;1.00;;;;;;4941621;29;20489;-76
2022/03/05 02:57:08;;;;;;;0.50;0.10;;;1.20;1.00;;;;;;4940034;29;20502;-75
2022/03/05 02:59:36;;;;;;;0.50;0.10;;;1.20;1.00;;;;;;4937489;29;20947;-74
2022/03/05 03:02:04;;;;;;;1.37;1.27;;;1.20;1.00;;;;;;4938647;29;20550;-74
2022/03/05 03:04:32;;;;;;;0.50;0.10;;;1.10;1.00;;;;;;4941469;29;20443;-74
2022/03/05 03:07:00;;;;;;;6.20;1.40;;;1.10;1.00;;;;;;4943359;29;20444;-77
2022/03/05 03:09:28;;;;;;;0.50;0.17;;;1.10;1.00;;;;;;4940744;29;20466;-75
2022/03/05 03:11:56;;;;;;;0.50;0.10;;;1.10;1.00;;;;;;4945402;29;20474;-74
2022/03/05 03:14:25;;;;;;;0.60;0.10;;;1.10;1.00;;;;;;4946362;29;20515;-75
2022/03/05 03:16:53;;;;;;;1.33;1.23;;;1.10;1.00;;;;;;4944745;29;20456;-74
2022/03/05 03:19:21;;;;;;;3.07;1.37;;;1.10;1.00;;;;;;4943162;29;20448;-75
2022/03/05 03:21:49;;;;;;;0.50;0.20;;;1.10;1.00;;;;;;4944467;29;20551;-74
2022/03/05 03:24:17;;;;;;;0.60;0.40;;;1.10;1.00;;;;;;4943996;29;20471;-73
2022/03/05 03:26:45;;;;;;;0.70;0.43;;;1.10;1.00;;;;;;4940613;29;20452;-72
2022/03/05 03:29:13;;;;;;;5.10;3.00;;;1.10;1.00;;;;;;4941430;29;20483;-75
2022/03/05 03:31:42;;;;;;;0.50;0.10;;;1.10;1.00;;;;;;4943483;29;20485;-74
2022/03/05 03:34:10;;;;;;;2.10;1.90;;;1.10;1.00;;;;;;4942533;29;20487;-74
2022/03/05 03:36:38;;;;;;;2.47;2.27;;;1.00;1.00;;;;;;4942111;29;20454;-74
2022/03/05 03:39:06;;;;;;;1.33;1.23;;;1.00;1.00;;;;;;4941796;29;20456;-74
2022/03/05 03:41:34;;;;;;;0.80;0.53;;;1.00;1.00;;;;;;4942103;29;20467;-74
2022/03/05 03:44:06;;;;;;;0.50;0.10;;;1.00;1.00;;;;;;4941656;29;20447;-75
2022/03/05 03:46:35;;;;;;;3.03;0.90;;;1.00;1.00;;;;;;4941659;29;20804;-74
2022/03/05 03:49:04;;;;;;;10.23;2.57;;;1.00;1.00;;;;;;4941267;29;20584;-74
2022/03/05 03:51:32;;;;;;;0.50;0.20;;;1.10;1.00;;;;;;4940682;29;20859;-73
2022/03/05 03:54:00;;;;;;;1.07;0.97;;;1.00;1.00;;;;;;4941217;29;20498;-74
2022/03/05 03:56:28;;;;;;;0.50;0.20;;;;;;;;;;4937893;29;20963;-73
2022/03/05 03:58:56;;;;;;;0.60;0.53;;;1.00;1.00;;;;;;4937940;29;20931;-75
2022/03/05 04:01:23;;;;;;;0.50;0.10;;;1.00;1.00;;;;;;4938500;29;20488;-74
2022/03/05 04:03:52;;;;;;;0.60;0.33;;;0.90;1.00;;;;;;4937971;29;20535;-73
2022/03/05 04:06:21;;;;;;;1.40;1.30;;;0.90;1.00;;;;;;4941102;29;20555;-74
2022/03/05 04:08:48;;;;;;;2.80;1.30;;;0.90;1.00;;;;;;4943405;29;20490;-74
2022/03/05 04:11:18;;;;;;;0.63;0.63;;;0.90;1.00;;;;;;4941266;29;20472;-74
2022/03/05 04:13:47;;;;;;;2.00;1.47;;;1.00;1.00;;;;;;4939635;29;20453;-74
2022/03/05 04:16:15;;;;;;;1.27;1.17;;;;;;;;;;4939177;29;20454;-75
2022/03/05 04:18:43;;;;;;;3.93;3.73;;;0.90;1.00;;;;;;4923844;29;20562;-74
2022/03/05 04:21:11;;;;;;;1.03;0.93;;;1.00;1.00;;;;;;4930804;29;20471;-74
2022/03/05 04:23:40;;;;;;;1.80;0.73;;;1.00;1.00;;;;;;4938978;29;20479;-74
2022/03/05 04:26:08;;;;;;;13.20;1.33;;;1.00;1.00;;;;;;4939321;29;20559;-74
2022/03/05 04:28:36;;;;;;;1.27;1.23;;;0.90;1.00;;;;;;4943760;29;20458;-74
2022/03/05 04:31:04;;;;;;;0.50;0.10;;;0.90;1.00;;;;;;4945540;29;20502;-76
2022/03/05 04:33:32;;;;;;;0.50;0.10;;;0.90;1.00;;;;;;4944177;29;20471;-74
2022/03/05 04:36:00;;;;;;;0.60;0.40;;;0.90;1.00;;;;;;4944225;29;21024;-74
2022/03/05 04:38:28;;;;;;;0.50;0.10;;;0.90;1.00;;;;;;4944652;29;20456;-74
2022/03/05 04:40:58;;;;;;;2.20;2.10;;;0.90;1.00;;;;;;4946680;29;20481;-74
2022/03/05 04:43:25;;;;;;;11.63;3.70;;;0.90;1.00;;;;;;4944036;29;20473;-74
2022/03/05 04:45:53;;;;;;;0.50;0.10;;;0.90;1.00;;;;;;4941610;29;20446;-73
2022/03/05 04:48:21;;;;;;;1.80;1.70;;;0.90;1.00;;;;;;4943300;29;20452;-74
2022/03/05 04:50:49;;;;;;;0.50;0.10;;;1.00;1.00;;;;;;4942227;29;20452;-74
2022/03/05 04:53:19;;;;;;;1.13;0.77;;;1.00;1.00;;;;;;4939401;29;20452;-73
2022/03/05 04:55:47;;;;;;;1.90;1.50;;;1.00;1.00;;;;;;4940164;29;20998;-74
2022/03/05 04:58:17;;;;;;;0.50;0.20;;;1.00;1.00;;;;;;4943024;29;20440;-74
2022/03/05 05:00:45;;;;;;;4.43;4.23;;;1.00;1.00;;;;;;4939716;29;20449;-74
2022/03/05 05:03:13;;;;;;;0.50;0.10;;;1.00;1.00;;;;;;4942553;29;20452;-73
2022/03/05 05:05:41;;;;;;;0.50;0.20;;;1.00;1.00;;;;;;4942155;29;20829;-74
2022/03/05 05:08:09;;;;;;;3.67;2.43;;;1.00;1.00;;;;;;4940310;29;20448;-74
2022/03/05 05:10:37;;;;;;;1.07;0.97;;;1.00;1.00;;;;;;4938868;29;20449;-74
2022/03/05 05:13:05;;;;;;;0.50;0.10;;;1.00;1.00;;;;;;4940333;29;20483;-74
2022/03/05 05:15:34;;;;;;;5.13;4.73;;;0.90;1.00;;;;;;4939240;29;20483;-74
2022/03/05 05:18:02;;;;;;;1.27;1.20;;;0.90;1.00;;;;;;4938937;29;20452;-74
2022/03/05 05:20:30;;;;;;;0.50;0.10;;;0.90;1.00;;;;;;4937180;29;20459;-74
2022/03/05 05:22:58;;;;;;;8.27;1.80;;;0.90;1.00;;;;;;4937669;29;20475;-73
2022/03/05 05:25:26;;;;;;;0.50;0.20;;;0.90;1.00;;;;;;4938005;29;20446;-75
2022/03/05 05:27:54;;;;;;;5.57;2.97;;;0.80;1.00;;;;;;4938417;29;20455;-74
2022/03/05 05:30:21;;;;;;;2.17;2.07;;;0.80;1.00;;;;;;4936964;29;20448;-73
2022/03/05 05:32:51;;;;;;;2.37;2.27;;;0.80;1.00;;;;;;4936333;29;20931;-73
2022/03/05 05:35:18;;;;;;;3.50;2.70;;;0.80;1.00;;;;;;4936537;29;20483;-74
2022/03/05 05:37:46;;;;;;;0.60;0.30;;;0.70;1.00;;;;;;4936064;29;20567;-74
2022/03/05 05:40:14;;;;;;;3.80;3.57;;;0.70;1.00;;;;;;4937133;29;20452;-74
2022/03/05 05:42:43;;;;;;;0.50;0.20;;;0.70;1.00;;;;;;4943341;29;20483;-74
2022/03/05 05:45:11;;;;;;;0.50;0.10;;;0.60;1.00;;;;;;4948579;29;20515;-74
2022/03/05 05:47:39;;;;;;;0.80;0.60;;;0.60;1.00;;;;;;4941698;29;20450;-74
2022/03/05 05:50:10;;;;;;;0.60;0.33;;;0.60;1.00;;;;;;4948659;29;20506;-75
2022/03/05 05:52:39;;;;;;;0.50;0.10;;;0.60;1.00;;;;;;4954428;29;20508;-74
2022/03/05 05:55:07;;;;;;;0.70;0.10;;;0.60;1.00;;;;;;4945603;29;20479;-74
2022/03/05 05:57:35;;;;;;;0.50;0.10;;;0.70;1.00;;;;;;4951561;29;20454;-74
2022/03/05 06:00:05;;;;;;;0.50;0.10;;;0.70;1.00;;;;;;4948455;29;20459;-74
2022/03/05 06:02:33;;;;;;;0.80;0.80;;;0.70;1.00;;;;;;4941331;29;20476;-74
2022/03/05 06:05:01;;;;;;;0.50;0.20;;;0.70;1.00;;;;;;4951674;29;20444;-74
2022/03/05 06:07:30;;;;;;;0.80;0.80;;;0.60;1.00;;;;;;4952467;29;20535;-74
2022/03/05 06:09:58;;;;;;;0.50;0.20;;;0.60;1.00;;;;;;4939696;29;20452;-74
2022/03/05 06:12:25;;;;;;;0.50;0.20;;;0.70;1.00;;;;;;4937750;29;20474;-73
2022/03/05 06:14:53;;;;;;;3.50;1.90;;;0.70;1.00;;;;;;4937147;29;20455;-72
2022/03/05 06:17:21;;;;;;;2.77;2.53;;;0.80;1.00;;;;;;4937036;29;20470;-74
2022/03/05 06:19:49;;;;;;;0.60;0.43;;;0.80;1.00;;;;;;4920360;29;20465;-74
2022/03/05 06:22:17;;;;;;;0.50;0.23;;;0.80;1.00;;;;;;4917892;29;20488;-74
2022/03/05 06:24:46;;;;;;;2.13;1.93;;;0.80;1.00;;;;;;4916791;29;20457;-74
2022/03/05 06:27:14;;;;;;;0.50;0.10;;;0.80;1.00;;;;;;4919799;29;20444;-74
2022/03/05 06:29:41;;;;;;;0.57;0.33;;;0.90;1.00;;;;;;4919538;29;20453;-74
2022/03/05 06:32:11;;;;;;;26.80;10.60;;;0.90;1.00;;;;;;4926384;29;20467;-74
2022/03/05 06:34:38;;;;;;;0.50;0.10;;;0.90;1.00;;;;;;4936173;29;20452;-74
2022/03/05 06:37:06;;;;;;;2.10;1.57;;;0.90;1.00;;;;;;4917518;29;20482;-75
2022/03/05 06:39:34;;;;;;;4.47;4.03;;;1.00;1.00;;;;;;4918481;29;20451;-74
2022/03/05 06:42:04;;;;;;;0.50;0.20;;;1.00;1.00;;;;;;4918668;29;20464;-74
2022/03/05 06:44:35;;;;;;;1.33;1.13;;;1.00;1.00;;;;;;4922438;29;20445;-74
2022/03/05 06:47:04;;;;;;;0.50;0.20;;;1.00;1.00;;;;;;4922015;29;20511;-74
2022/03/05 06:49:32;;;;;;;0.60;0.37;;;1.00;1.00;;;;;;4922847;29;20465;-75
2022/03/05 06:52:00;;;;;;;0.50;0.10;;;1.00;1.00;;;;;;4934534;29;20485;-74
2022/03/05 06:54:28;;;;;;;1.67;1.57;;;1.10;1.00;;;;;;4942663;29;20463;-74
2022/03/05 06:56:55;;;;;;;5.00;4.63;;;1.10;1.00;;;;;;4939780;29;20488;-74
2022/03/05 06:59:25;;;;;;;1.33;1.03;;;1.10;1.00;;;;;;4938476;29;20444;-74
2022/03/05 07:01:53;;;;;;;0.50;0.10;;;1.20;1.00;;;;;;4941859;29;20464;-74
2022/03/05 07:04:21;;;;;;;2.30;0.57;;;1.20;1.00;;;;;;4947488;29;20453;-74
2022/03/05 07:06:48;;;;;;;0.50;0.10;;;1.20;1.00;;;;;;4944963;29;20515;-74
2022/03/05 07:09:16;;;;;;;2.10;2.00;;;1.20;1.00;;;;;;4947812;29;20455;-74
2022/03/05 07:11:44;;;;;;;2.03;1.17;;;1.20;1.00;;;;;;4942715;29;20475;-74
2022/03/05 07:14:12;;;;;;;0.50;0.10;;;1.30;1.00;;;;;;4936037;29;20810;-74
2022/03/05 07:16:41;;;;;;;0.50;0.10;;;1.30;1.00;;;;;;4919035;29;20480;-74
2022/03/05 07:19:10;;;;;;;0.60;0.30;;;1.30;1.00;;;;;;4919912;29;20456;-74
2022/03/05 07:21:41;;;;;;;2.53;2.33;;;1.40;1.00;;;;;;4928655;29;20538;-74
2022/03/05 07:24:09;;;;;;;2.17;2.07;;;1.40;1.00;;;;;;4936832;29;20474;-73
2022/03/05 07:26:37;;;;;;;0.50;0.10;;;1.40;1.00;;;;;;4936523;29;20500;-73
2022/03/05 07:29:05;;;;;;;3.03;1.80;;;1.50;1.00;;;;;;4937944;29;20447;-75
2022/03/05 07:31:33;;;;;;;0.50;0.10;;;1.50;1.00;;;;;;4940478;29;20479;-76
2022/03/05 07:34:02;;;;;;;0.50;0.20;;;1.50;1.00;;;;;;4937001;29;20531;-77
2022/03/05 07:36:31;;;;;;;1.23;1.17;;;1.60;1.00;;;;;;4935552;29;20492;-74
2022/03/05 07:38:58;;;;;;;0.50;0.10;;;1.70;1.00;;;;;;4935960;29;20455;-74
2022/03/05 07:41:26;;;;;;;0.57;0.20;;;1.70;1.00;;;;;;4936218;29;20471;-75
2022/03/05 07:43:54;;;;;;;0.60;0.30;;;1.80;1.00;;;;;;4939613;29;20503;-75
2022/03/05 07:46:22;;;;;;;0.50;0.10;;;1.80;1.00;;;;;;4920925;29;20449;-76
2022/03/05 07:48:50;;;;;;;1.67;0.40;;;1.80;1.00;;;;;;4917410;29;20520;-75
2022/03/05 07:51:19;;;;;;;0.50;0.10;;;1.90;1.00;;;;;;4920090;29;20472;-73
2022/03/05 07:53:47;;;;;;;1.67;1.57;;;2.00;1.00;;;;;;4925076;29;20962;-74
2022/03/05 07:56:15;;;;;;;2.70;2.50;;;2.10;1.00;;;;;;4923584;29;20494;-74
2022/03/05 07:58:42;;;;;;;0.87;0.83;;;2.10;1.00;;;;;;4938716;29;20534;-75
2022/03/05 08:01:10;;;;;;;3.57;1.50;;;2.10;1.00;;;;;;4940320;29;20464;-75
2022/03/05 08:03:38;;;;;;;0.50;0.10;;;2.20;1.00;;;;;;4946709;29;20456;-76
2022/03/05 08:06:07;;;;;;;4.33;4.07;;;2.20;1.00;;;;;;4941131;29;20503;-74
2022/03/05 08:08:36;;;;;;;0.50;0.10;;;2.30;1.00;;;;;;4938859;29;20460;-73
2022/03/05 08:11:04;;;;;;;1.37;1.27;;;2.30;1.00;;;;;;4939105;29;20464;-75
2022/03/05 08:13:32;;;;;;;2.73;0.83;;;2.30;1.00;;;;;;4938832;29;20480;-77
2022/03/05 08:16:00;;;;;;;0.50;0.10;;;2.40;1.00;;;;;;4928460;29;20548;-72
2022/03/05 08:18:28;;;;;;;0.50;0.10;;;2.40;1.00;;;;;;4920247;29;21011;-77
2022/03/05 08:20:56;;;;;;;0.50;0.10;;;2.50;1.00;;;;;;4918742;29;20479;-73
2022/03/05 08:23:23;;;;;;;0.50;0.10;;;2.60;1.00;;;;;;4919814;29;20482;-75
2022/03/05 08:25:53;;;;;;;0.50;0.10;;;2.60;1.00;;;;;;4927890;29;20480;-74
2022/03/05 08:28:22;;;;;;;7.90;7.23;;;2.70;1.00;;;;;;4938715;29;20478;-75
2022/03/05 08:30:50;;;;;;;2.10;1.90;;;2.80;1.00;;;;;;4938736;29;20449;-73
2022/03/05 08:33:19;;;;;;;0.50;0.10;;;2.80;1.00;;;;;;4938065;29;20973;-73
2022/03/05 08:35:47;;;;;;;0.50;0.10;;;2.80;1.00;;;;;;4937841;29;20450;-75
2022/03/05 08:38:15;;;;;;;0.60;0.27;;;1.80;1.00;;;;;;4937964;29;20499;-75
2022/03/05 08:40:43;;;;;;;0.50;0.10;;;3.00;1.00;;;;;;4940405;29;20534;-75
2022/03/05 08:43:13;;;;;;;0.50;0.10;;;3.00;1.00;;;;;;4938200;29;20460;-75
2022/03/05 08:45:41;;;;;;;0.70;0.40;;;3.00;1.00;;;;;;4937414;29;20540;-74
2022/03/05 08:48:09;;;;;;;0.50;0.10;;;3.00;1.00;;;;;;4942067;29;20444;-77
2022/03/05 08:50:37;;;;;;;0.50;0.10;;;3.10;1.00;;;;;;4942313;29;20453;-74
2022/03/05 08:53:05;;;;;;;0.50;0.10;;;3.10;1.00;;;;;;4931093;29;20454;-76
2022/03/05 08:55:33;;;;;;;0.50;0.10;;;3.10;1.00;;;;;;4919319;29;20455;-72
2022/03/05 08:58:00;;;;;;;0.50;0.20;;;3.20;1.00;;;;;;4921592;29;20495;-74
2022/03/05 09:00:30;;;;;;;0.50;0.10;;;3.20;1.00;;;;;;4946789;29;20956;-73
2022/03/05 09:02:57;;;;;;;0.50;0.20;;;3.30;1.00;;;;;;4939692;29;20980;-76
2022/03/05 09:05:26;;;;;;;0.50;0.10;;;3.30;1.00;;;;;;4936313;29;20492;-74
2022/03/05 09:07:53;;;;;;;0.73;0.73;;;3.40;1.00;;;;;;4936898;29;20954;-75
2022/03/05 09:10:21;;;;;;;0.60;0.47;;;3.50;1.00;;;;;;4933531;29;20928;-75
2022/03/05 09:12:49;;;;;;;0.50;0.13;;;3.50;1.00;;;;;;4917721;29;20825;-76
2022/03/05 09:15:17;;;;;;;0.50;0.10;;;3.60;1.00;;;;;;4919604;29;20470;-75
2022/03/05 09:17:46;;;;;;;0.50;0.10;;;3.60;1.00;;;;;;4931186;29;20478;-75
2022/03/05 09:20:15;;;;;;;0.50;0.10;;;3.60;1.00;;;;;;4938923;29;20829;-74
2022/03/05 09:22:42;;;;;;;0.50;0.10;;;3.70;1.00;;;;;;4938346;29;20513;-74
2022/03/05 09:25:11;;;;;;;0.50;0.10;;;3.80;1.00;;;;;;4937800;29;20789;-75
2022/03/05 09:27:40;;;;;;;0.50;0.10;;;3.80;1.00;;;;;;4938140;29;20465;-73
2022/03/05 09:30:09;;;;;;;0.53;0.10;;;3.90;1.00;;;;;;4938882;29;20593;-74
2022/03/05 09:32:36;;;;;;;0.50;0.20;;;3.90;1.00;;;;;;4938437;29;20821;-74
2022/03/05 09:35:07;;;;;;;0.50;0.10;;;3.90;1.00;;;;;;4938379;29;20462;-73
2022/03/05 09:37:35;;;;;;;0.50;0.10;;;3.90;1.00;;;;;;4940460;29;20495;-73
2022/03/05 09:40:10;;;;;;;0.57;0.37;;;4.00;1.00;;;;;;4937922;29;20449;-73
2022/03/05 09:42:42;;;;;;;0.83;0.83;;;4.10;1.00;;;;;;4937426;29;20545;-74
2022/03/05 09:45:11;;;;;;;0.50;0.20;;;4.20;1.00;;;;;;4938419;29;20938;-74
2022/03/05 09:47:40;;;;;;;0.50;0.10;;;4.20;1.00;;;;;;4937772;29;20906;-74
2022/03/05 09:50:10;;;;;;;0.50;0.10;;;4.30;1.00;;;;;;4941232;29;20986;-73
2022/03/05 09:52:38;;;;;;;0.50;0.10;;;4.40;1.00;;;;;;4936043;29;20868;-75
2022/03/05 09:55:08;;;;;;;0.50;0.10;;;4.40;1.00;;;;;;4919119;29;20449;-72
2022/03/05 09:57:36;;;;;;;0.50;0.10;;;4.50;1.00;;;;;;4917948;29;20489;-73
2022/03/05 10:00:06;;;;;;;1.10;0.80;;;4.60;1.00;;;;;;4919037;29;20545;-74
2022/03/05 10:02:34;;;;;;;1.43;1.07;;;4.70;1.00;;;;;;4919273;29;20476;-74
2022/03/05 10:05:19;;;;;;;0.50;0.10;;;4.70;1.00;;;;;;4920078;29;20943;-75
2022/03/05 10:08:07;;;;;;;0.50;0.10;;;4.80;1.00;;;;;;4936393;29;20572;-74
2022/03/05 10:10:43;;;;;;;0.50;0.10;;;4.90;1.00;;;;;;4922944;29;20539;-75
2022/03/05 10:13:23;;;;;;;0.73;0.73;;;4.90;1.00;;;;;;4916553;29;20446;-76
2022/03/05 10:15:53;;;;;;;0.50;0.10;;;5.10;99.90;;;;;;4916770;29;20456;-74
2022/03/05 10:18:27;;;;;;;0.50;0.10;;;5.10;99.90;;;;;;4919203;29;20481;-74
2022/03/05 10:20:57;;;;;;;1.47;0.60;;;5.10;99.90;;;;;;4918627;29;20477;-75
2022/03/05 10:23:26;;;;;;;0.60;0.10;;;;;;;;;;4934938;29;20458;-75
2022/03/05 10:25:55;;;;;;;2.20;1.37;;;5.30;99.90;;;;;;4940715;29;20457;-75
2022/03/05 10:28:25;;;;;;;0.50;0.10;;;5.40;99.90;;;;;;4939967;29;20453;-75
2022/03/05 10:30:54;;;;;;;10.57;9.63;;;5.40;99.90;;;;;;4938718;29;20472;-75
2022/03/05 10:33:28;;;;;;;0.50;0.10;;;5.40;99.90;;;;;;4938336;29;20461;-74
2022/03/05 10:35:59;;;;;;;0.50;0.10;;;5.40;99.90;;;;;;4937497;29;20477;-74
2022/03/05 10:38:50;;;;;;;0.50;0.10;;;5.50;99.90;;;;;;4936707;29;20482;-75
2022/03/05 10:41:20;;;;;;;0.60;0.20;;;5.60;99.90;;;;;;4933933;29;20471;-74
2022/03/05 10:44:05;;;;;;;0.60;0.40;;;5.70;99.90;;;;;;4937680;29;20546;-75
2022/03/05 10:46:40;;;;;;;1.63;1.53;;;5.80;99.90;;;;;;4937386;29;20441;-76
2022/03/05 10:49:10;;;;;;;0.60;0.40;;;5.90;99.90;;;;;;4937843;29;20930;-75
2022/03/05 10:51:39;;;;;;;0.50;0.10;;;6.00;99.90;;;;;;4937631;29;20575;-75
2022/03/05 10:54:10;;;;;;;0.53;0.10;;;6.30;99.90;;;;;;4939327;29;20443;-73
2022/03/05 10:56:43;;;;;;;0.50;0.10;;;6.10;99.90;;;;;;4938823;29;20446;-75
2022/03/05 10:59:12;;;;;;;0.60;0.20;;;6.10;99.90;;;;;;4936361;29;20489;-74
2022/03/05 11:01:42;;;;;;;0.53;0.10;;;6.30;99.90;;;;;;4937002;29;20469;-74
2022/03/05 11:04:12;;;;;;;0.50;0.10;;;6.40;99.90;;;;;;4941627;29;20482;-75
2022/03/05 11:06:43;;;;;;;0.60;0.10;;;6.60;99.90;;;;;;4930543;29;20868;-75
2022/03/05 11:09:13;;;;;;;0.60;0.10;;;6.60;99.90;;;;;;4911852;29;20482;-74
2022/03/05 11:11:42;;;;;;;0.57;0.10;;;6.70;99.90;;;;;;4941427;29;20467;-76
2022/03/05 11:14:15;;;;;;;0.53;0.10;;;6.80;99.90;;;;;;4944398;29;20450;-76
2022/03/05 11:16:44;;;;;;;0.50;0.10;;;6.90;99.90;;;;;;4938508;29;20952;-75
2022/03/05 11:19:14;;;;;;;0.57;0.20;;;7.00;99.90;;;;;;4944406;29;20487;-75
2022/03/05 11:21:43;;;;;;;0.50;0.10;;;7.10;99.90;;;;;;4949594;29;20490;-74
2022/03/05 11:24:14;;;;;;;0.60;0.10;;;7.20;99.90;;;;;;4946481;29;20455;-74
2022/03/05 11:26:44;;;;;;;0.50;0.10;;;7.20;99.90;;;;;;4946015;29;20470;-74
2022/03/05 11:29:30;;;;;;;0.50;0.10;;;7.20;99.90;;;;;;4945037;29;21163;-74
2022/03/05 11:32:11;;;;;;;0.60;0.10;;;7.20;99.90;;;;;;4939510;29;20481;-75
2022/03/05 11:34:51;;;;;;;0.60;0.10;;;7.20;99.90;;;;;;4938565;29;20540;-74
2022/03/05 11:37:26;;;;;;;0.50;0.10;;;7.40;99.90;;;;;;4952938;29;20471;-74
2022/03/05 11:39:54;;;;;;;0.60;0.10;;;7.30;99.90;;;;;;4940428;29;21001;-76
2022/03/05 11:42:30;;;;;;;11.40;5.30;;;7.50;99.90;;;;;;4928817;29;20472;-75
2022/03/05 11:44:59;;;;;;;0.60;0.20;;;7.60;99.90;;;;;;4919373;29;20441;-74
2022/03/05 11:47:31;;;;;;;0.60;0.10;;;7.70;99.90;;;;;;4926377;29;20592;-75
2022/03/05 11:50:18;;;;;;;0.60;0.10;;;7.70;99.90;;;;;;4938248;29;20935;-74
2022/03/05 11:53:07;;;;;;;0.50;0.10;;;7.60;99.90;;;;;;4940730;29;20471;-74
2022/03/05 11:55:41;;;;;;;0.60;0.10;;;7.70;99.90;;;;;;4938929;29;20529;-73
2022/03/05 11:58:26;;;;;;;0.60;0.33;;;7.80;99.90;;;;;;4940058;29;20513;-74
2022/03/05 12:00:55;;;;;;;0.60;0.10;;;7.70;99.90;;;;;;4940816;29;20469;-75
2022/03/05 12:03:35;;;;;;;0.60;0.10;;;7.60;99.90;;;;;;4939133;29;20450;-74
2022/03/05 12:06:04;;;;;;;0.60;0.10;;;7.60;99.90;;;;;;4939946;29;20460;-74
2022/03/05 12:08:52;;;;;;;0.50;0.10;;;7.60;99.90;;;;;;4938894;29;20455;-75
2022/03/05 12:11:22;;;;;;;0.60;0.20;;;7.70;99.90;;;;;;4933409;29;20930;-74
2022/03/05 12:13:55;;;;;;;0.60;0.40;;;7.80;99.90;;;;;;4919687;29;20837;-75
2022/03/05 12:16:25;;;;;;;0.60;0.10;;;7.90;99.90;;;;;;4919467;29;21020;-74
2022/03/05 12:18:56;;;;;;;59.23;34.90;;;8.10;99.90;;;;;;4921129;29;20479;-73
2022/03/05 12:21:28;;;;;;;0.50;0.10;;;8.10;99.90;;;;;;4928375;29;20487;-73
2022/03/05 12:24:05;;;;;;;0.60;0.10;;;8.30;99.90;;;;;;4944200;29;20483;-74
2022/03/05 12:26:40;;;;;;;0.60;0.10;;;8.30;99.90;;;;;;4919108;29;20447;-74
2022/03/05 12:29:10;;;;;;;0.70;0.60;;;8.50;99.90;;;;;;4919003;29;20451;-74
2022/03/05 12:31:41;;;;;;;0.60;0.10;;;8.60;99.90;;;;;;4919143;29;20472;-75
2022/03/05 12:34:09;;;;;;;0.60;0.10;;;8.70;99.90;;;;;;4937547;29;20563;-73
2022/03/05 12:36:42;;;;;;;0.67;0.40;;;8.80;99.90;;;;;;4937136;29;20455;-74
2022/03/05 12:39:11;;;;;;;0.60;0.10;;;8.70;99.90;;;;;;4938613;29;20520;-74
2022/03/05 12:41:42;;;;;;;0.60;0.10;;;8.80;99.90;;;;;;4930568;29;20472;-74
2022/03/05 12:44:12;;;;;;;0.60;0.10;;;8.80;99.90;;;;;;4919087;29;20799;-74
2022/03/05 12:46:40;;;;;;;0.60;0.10;;;8.80;99.90;;;;;;4918244;29;20486;-73
2022/03/05 12:49:09;;;;;;;0.60;0.20;;;9.00;99.90;;;;;;4918324;29;20447;-74
2022/03/05 12:51:37;;;;;;;0.80;0.43;;;9.00;99.90;;;;;;4920287;29;20307;-74
2022/03/05 12:54:06;;;;;;;0.60;0.10;;;9.00;99.90;;;;;;4918684;29;20474;-74
2022/03/05 12:56:36;;;;;;;0.60;0.10;;;9.00;99.90;;;;;;4930512;29;21008;-74
2022/03/05 12:59:06;;;;;;;0.60;0.10;;;9.00;99.90;;;;;;4938443;29;20493;-74
2022/03/05 13:01:34;;;;;;;0.60;0.10;;;9.00;99.90;;;;;;4937747;29;20510;-74
2022/03/05 13:04:02;;;;;;;0.60;0.20;;;9.00;99.90;;;;;;4937409;29;20455;-74
2022/03/05 13:06:30;;;;;;;0.60;0.10;;;8.90;99.90;;;;;;4937777;29;20622;-74
2022/03/05 13:08:58;;;;;;;0.60;0.10;;;8.80;99.90;;;;;;4937821;29;20446;-74
2022/03/05 13:11:50;;;;;;;0.60;0.20;;;8.70;99.90;;;;;;4938110;29;20468;-74
2022/03/05 13:14:20;;;;;;;0.60;0.10;;;8.50;99.90;;;;;;4937883;29;20458;-74
2022/03/05 13:16:50;;;;;;;0.60;0.10;;;8.40;99.90;;;;;;4939323;29;20482;-73